sensor_id;sensor_type;location;lat;lon;timestamp;temperature;humidity
782;DHT22;374;52.568;13.402;2023-02-28T00:00:48;2.80;99.90
782;DHT22;374;52.568;13.402;2023-02-28T00:03:13;2.80;99.90
782;DHT22;374;52.568;13.402;2023-02-28T00:05:39;2.80;99.90
782;DHT22;374;52.568;13.402;2023-02-28T00:08:04;2.70;99.90
782;DHT22;374;52.568;13.402;2023-02-28T00:10:31;2.70;99.90
782;DHT22;374;52.568;13.402;2023-02-28T00:13:01;2.70;99.90
782;DHT22;374;52.568;13.402;2023-02-28T00:15:27;2.60;99.90
782;DHT22;374;52.568;13.402;2023-02-28T00:17:54;2.60;99.90
782;DHT22;374;52.568;13.402;2023-02-28T00:20:20;2.60;99.90
782;DHT22;374;52.568;13.402;2023-02-28T00:22:48;2.60;99.90
782;DHT22;374;52.568;13.402;2023-02-28T00:25:17;2.60;99.90
782;DHT22;374;52.568;13.402;2023-02-28T00:27:43;2.60;99.90
782;DHT22;374;52.568;13.402;2023-02-28T00:30:21;2.60;99.90
782;DHT22;374;52.568;13.402;2023-02-28T00:32:47;2.60;99.90
782;DHT22;374;52.568;13.402;2023-02-28T00:35:13;3.40;99.90
782;DHT22;374;52.568;13.402;2023-02-28T00:37:39;2.60;99.90
782;DHT22;374;52.568;13.402;2023-02-28T00:40:06;2.60;99.90
782;DHT22;374;52.568;13.402;2023-02-28T00:42:32;2.60;99.90
782;DHT22;374;52.568;13.402;2023-02-28T00:44:58;2.60;99.90
782;DHT22;374;52.568;13.402;2023-02-28T00:47:24;2.60;99.90
782;DHT22;374;52.568;13.402;2023-02-28T00:49:49;2.60;99.90
782;DHT22;374;52.568;13.402;2023-02-28T00:52:15;2.60;99.90
782;DHT22;374;52.568;13.402;2023-02-28T00:54:40;2.60;99.90
782;DHT22;374;52.568;13.402;2023-02-28T00:57:06;2.60;99.90
782;DHT22;374;52.568;13.402;2023-02-28T00:59:31;2.60;99.90
782;DHT22;374;52.568;13.402;2023-02-28T01:01:57;2.60;99.90
782;DHT22;374;52.568;13.402;2023-02-28T01:04:22;2.60;99.90
782;DHT22;374;52.568;13.402;2023-02-28T01:06:48;2.60;99.90
782;DHT22;374;52.568;13.402;2023-02-28T01:09:13;2.60;99.90
782;DHT22;374;52.568;13.402;2023-02-28T01:11:39;2.60;99.90
782;DHT22;374;52.568;13.402;2023-02-28T01:14:06;2.60;99.90
782;DHT22;374;52.568;13.402;2023-02-28T01:16:32;2.60;99.90
782;DHT22;374;52.568;13.402;2023-02-28T01:18:57;2.60;99.90
782;DHT22;374;52.568;13.402;2023-02-28T01:21:23;2.50;99.90
782;DHT22;374;52.568;13.402;2023-02-28T01:23:49;2.50;99.90
782;DHT22;374;52.568;13.402;2023-02-28T01:26:18;2.50;99.90
782;DHT22;374;52.568;13.402;2023-02-28T01:28:44;2.50;99.90
782;DHT22;374;52.568;13.402;2023-02-28T01:31:10;2.50;99.90
782;DHT22;374;52.568;13.402;2023-02-28T01:33:37;2.50;99.90
782;DHT22;374;52.568;13.402;2023-02-28T01:36:09;2.50;99.90
782;DHT22;374;52.568;13.402;2023-02-28T01:38:36;2.50;99.90
782;DHT22;374;52.568;13.402;2023-02-28T01:41:02;2.40;99.90
782;DHT22;374;52.568;13.402;2023-02-28T01:43:31;2.50;99.90
782;DHT22;374;52.568;13.402;2023-02-28T01:45:58;2.40;99.90
782;DHT22;374;52.568;13.402;2023-02-28T01:48:30;2.40;99.90
782;DHT22;374;52.568;13.402;2023-02-28T01:50:59;2.40;99.90
782;DHT22;374;52.568;13.402;2023-02-28T01:53:34;2.40;99.90
782;DHT22;374;52.568;13.402;2023-02-28T01:56:04;2.40;99.90
782;DHT22;374;52.568;13.402;2023-02-28T01:58:31;2.40;99.90
782;DHT22;374;52.568;13.402;2023-02-28T02:00:57;2.40;99.90
782;DHT22;374;52.568;13.402;2023-02-28T02:03:23;2.40;99.90
782;DHT22;374;52.568;13.402;2023-02-28T02:05:49;2.40;99.90
782;DHT22;374;52.568;13.402;2023-02-28T02:08:21;2.40;99.90
782;DHT22;374;52.568;13.402;2023-02-28T02:10:56;2.30;99.90
782;DHT22;374;52.568;13.402;2023-02-28T02:13:40;2.30;99.90
782;DHT22;374;52.568;13.402;2023-02-28T02:16:20;2.30;99.90
782;DHT22;374;52.568;13.402;2023-02-28T02:24:22;2.20;99.90
782;DHT22;374;52.568;13.402;2023-02-28T02:37:41;2.10;99.90
782;DHT22;374;52.568;13.402;2023-02-28T02:40:16;2.10;99.90
782;DHT22;374;52.568;13.402;2023-02-28T02:45:27;2.10;99.90
782;DHT22;374;52.568;13.402;2023-02-28T02:47:56;2.10;99.90
782;DHT22;374;52.568;13.402;2023-02-28T02:50:31;2.00;99.90
782;DHT22;374;52.568;13.402;2023-02-28T02:53:00;2.00;99.90
782;DHT22;374;52.568;13.402;2023-02-28T02:55:27;2.00;99.90
782;DHT22;374;52.568;13.402;2023-02-28T02:58:00;1.90;99.90
782;DHT22;374;52.568;13.402;2023-02-28T03:00:34;1.90;99.90
782;DHT22;374;52.568;13.402;2023-02-28T03:03:02;1.90;99.90
782;DHT22;374;52.568;13.402;2023-02-28T03:05:34;1.90;99.90
782;DHT22;374;52.568;13.402;2023-02-28T03:08:03;1.80;99.90
782;DHT22;374;52.568;13.402;2023-02-28T03:10:45;1.80;99.90
782;DHT22;374;52.568;13.402;2023-02-28T03:13:41;1.80;99.90
782;DHT22;374;52.568;13.402;2023-02-28T03:19:25;1.80;99.90
782;DHT22;374;52.568;13.402;2023-02-28T03:22:25;1.80;99.90
782;DHT22;374;52.568;13.402;2023-02-28T03:25:15;1.70;99.90
782;DHT22;374;52.568;13.402;2023-02-28T03:27:53;1.70;99.90
782;DHT22;374;52.568;13.402;2023-02-28T03:30:41;1.70;99.90
782;DHT22;374;52.568;13.402;2023-02-28T03:33:16;1.70;99.90
782;DHT22;374;52.568;13.402;2023-02-28T03:35:48;1.70;99.90
782;DHT22;374;52.568;13.402;2023-02-28T03:40:49;1.70;99.90
782;DHT22;374;52.568;13.402;2023-02-28T03:43:21;1.70;99.90
782;DHT22;374;52.568;13.402;2023-02-28T03:45:50;1.60;99.90
782;DHT22;374;52.568;13.402;2023-02-28T03:48:24;1.60;99.90
782;DHT22;374;52.568;13.402;2023-02-28T03:50:54;1.60;99.90
782;DHT22;374;52.568;13.402;2023-02-28T03:53:28;1.60;99.90
782;DHT22;374;52.568;13.402;2023-02-28T03:55:59;1.60;99.90
782;DHT22;374;52.568;13.402;2023-02-28T03:58:40;1.60;99.90
782;DHT22;374;52.568;13.402;2023-02-28T04:01:20;1.60;99.90
782;DHT22;374;52.568;13.402;2023-02-28T04:03:46;1.60;99.90
782;DHT22;374;52.568;13.402;2023-02-28T04:06:20;1.50;99.90
782;DHT22;374;52.568;13.402;2023-02-28T04:08:46;1.50;99.90
782;DHT22;374;52.568;13.402;2023-02-28T04:11:40;1.50;99.90
782;DHT22;374;52.568;13.402;2023-02-28T04:14:09;1.50;99.90
782;DHT22;374;52.568;13.402;2023-02-28T04:16:36;1.50;99.90
782;DHT22;374;52.568;13.402;2023-02-28T04:19:03;1.50;99.90
782;DHT22;374;52.568;13.402;2023-02-28T04:21:35;1.50;99.90
782;DHT22;374;52.568;13.402;2023-02-28T04:24:01;1.50;99.90
782;DHT22;374;52.568;13.402;2023-02-28T04:26:34;1.40;99.90
782;DHT22;374;52.568;13.402;2023-02-28T04:29:03;1.40;99.90
782;DHT22;374;52.568;13.402;2023-02-28T04:31:29;1.40;99.90
782;DHT22;374;52.568;13.402;2023-02-28T04:33:55;1.40;99.90
782;DHT22;374;52.568;13.402;2023-02-28T04:36:21;1.40;99.90
782;DHT22;374;52.568;13.402;2023-02-28T04:38:48;1.40;99.90
782;DHT22;374;52.568;13.402;2023-02-28T04:41:14;1.40;99.90
782;DHT22;374;52.568;13.402;2023-02-28T04:43:40;1.40;99.90
782;DHT22;374;52.568;13.402;2023-02-28T04:46:06;1.40;99.90
782;DHT22;374;52.568;13.402;2023-02-28T04:48:33;1.30;99.90
782;DHT22;374;52.568;13.402;2023-02-28T04:51:10;1.30;99.90
782;DHT22;374;52.568;13.402;2023-02-28T04:53:40;1.30;99.90
782;DHT22;374;52.568;13.402;2023-02-28T04:56:07;1.30;99.90
782;DHT22;374;52.568;13.402;2023-02-28T04:58:33;1.30;99.90
782;DHT22;374;52.568;13.402;2023-02-28T05:01:04;1.20;99.90
782;DHT22;374;52.568;13.402;2023-02-28T05:03:39;1.20;99.90
782;DHT22;374;52.568;13.402;2023-02-28T05:06:06;1.20;99.90
782;DHT22;374;52.568;13.402;2023-02-28T05:08:32;1.20;99.90
782;DHT22;374;52.568;13.402;2023-02-28T05:10:58;1.10;99.90
782;DHT22;374;52.568;13.402;2023-02-28T05:13:26;1.10;99.90
782;DHT22;374;52.568;13.402;2023-02-28T05:15:51;1.10;99.90
782;DHT22;374;52.568;13.402;2023-02-28T05:18:17;1.10;99.90
782;DHT22;374;52.568;13.402;2023-02-28T05:20:42;1.10;99.90
782;DHT22;374;52.568;13.402;2023-02-28T05:23:10;1.10;99.90
782;DHT22;374;52.568;13.402;2023-02-28T05:25:36;1.10;99.90
782;DHT22;374;52.568;13.402;2023-02-28T05:28:01;1.10;99.90
782;DHT22;374;52.568;13.402;2023-02-28T05:30:27;1.10;99.90
782;DHT22;374;52.568;13.402;2023-02-28T05:32:52;1.10;99.90
782;DHT22;374;52.568;13.402;2023-02-28T05:35:18;1.00;99.90
782;DHT22;374;52.568;13.402;2023-02-28T05:37:43;1.00;99.90
782;DHT22;374;52.568;13.402;2023-02-28T05:40:10;1.00;99.90
782;DHT22;374;52.568;13.402;2023-02-28T05:42:36;1.00;99.90
782;DHT22;374;52.568;13.402;2023-02-28T05:45:02;1.00;99.90
782;DHT22;374;52.568;13.402;2023-02-28T05:47:28;1.00;99.90
782;DHT22;374;52.568;13.402;2023-02-28T05:49:53;1.00;99.90
782;DHT22;374;52.568;13.402;2023-02-28T05:52:19;1.00;99.90
782;DHT22;374;52.568;13.402;2023-02-28T05:54:46;1.00;99.90
782;DHT22;374;52.568;13.402;2023-02-28T05:57:11;0.90;99.90
782;DHT22;374;52.568;13.402;2023-02-28T05:59:37;0.90;99.90
782;DHT22;374;52.568;13.402;2023-02-28T06:02:15;0.90;99.90
782;DHT22;374;52.568;13.402;2023-02-28T06:04:41;0.90;99.90
782;DHT22;374;52.568;13.402;2023-02-28T06:07:07;0.90;99.90
782;DHT22;374;52.568;13.402;2023-02-28T06:09:33;0.90;99.90
782;DHT22;374;52.568;13.402;2023-02-28T06:11:59;0.90;99.90
782;DHT22;374;52.568;13.402;2023-02-28T06:14:25;1.00;99.90
782;DHT22;374;52.568;13.402;2023-02-28T06:16:51;0.90;99.90
782;DHT22;374;52.568;13.402;2023-02-28T06:19:17;0.90;99.90
782;DHT22;374;52.568;13.402;2023-02-28T06:21:43;0.90;99.90
782;DHT22;374;52.568;13.402;2023-02-28T06:24:09;0.90;99.90
782;DHT22;374;52.568;13.402;2023-02-28T06:26:34;0.90;99.90
782;DHT22;374;52.568;13.402;2023-02-28T06:29:00;0.90;99.90
782;DHT22;374;52.568;13.402;2023-02-28T06:31:26;0.90;99.90
782;DHT22;374;52.568;13.402;2023-02-28T06:33:54;0.90;99.90
782;DHT22;374;52.568;13.402;2023-02-28T06:36:20;0.90;99.90
782;DHT22;374;52.568;13.402;2023-02-28T06:38:45;0.90;99.90
782;DHT22;374;52.568;13.402;2023-02-28T06:41:13;0.90;99.90
782;DHT22;374;52.568;13.402;2023-02-28T06:43:41;0.90;99.90
782;DHT22;374;52.568;13.402;2023-02-28T06:46:10;0.80;99.90
782;DHT22;374;52.568;13.402;2023-02-28T06:48:36;0.80;99.90
782;DHT22;374;52.568;13.402;2023-02-28T06:51:20;0.80;99.90
782;DHT22;374;52.568;13.402;2023-02-28T06:53:47;0.90;99.90
782;DHT22;374;52.568;13.402;2023-02-28T06:56:14;0.90;99.90
782;DHT22;374;52.568;13.402;2023-02-28T06:58:41;0.90;99.90
782;DHT22;374;52.568;13.402;2023-02-28T07:01:07;0.90;99.90
782;DHT22;374;52.568;13.402;2023-02-28T07:03:35;0.90;99.90
782;DHT22;374;52.568;13.402;2023-02-28T07:06:01;0.90;99.90
782;DHT22;374;52.568;13.402;2023-02-28T07:08:27;0.90;99.90
782;DHT22;374;52.568;13.402;2023-02-28T07:10:53;0.90;99.90
782;DHT22;374;52.568;13.402;2023-02-28T07:13:19;0.90;99.90
782;DHT22;374;52.568;13.402;2023-02-28T07:15:59;1.00;99.90
782;DHT22;374;52.568;13.402;2023-02-28T07:18:26;1.00;99.90
782;DHT22;374;52.568;13.402;2023-02-28T07:20:52;1.00;99.90
782;DHT22;374;52.568;13.402;2023-02-28T07:23:18;1.00;99.90
782;DHT22;374;52.568;13.402;2023-02-28T07:25:43;1.00;99.90
782;DHT22;374;52.568;13.402;2023-02-28T07:28:11;1.10;99.90
782;DHT22;374;52.568;13.402;2023-02-28T07:30:36;1.10;99.90
782;DHT22;374;52.568;13.402;2023-02-28T07:33:02;1.10;99.90
782;DHT22;374;52.568;13.402;2023-02-28T07:35:27;1.10;99.90
782;DHT22;374;52.568;13.402;2023-02-28T07:37:53;1.20;99.90
782;DHT22;374;52.568;13.402;2023-02-28T07:40:18;1.20;99.90
782;DHT22;374;52.568;13.402;2023-02-28T07:42:44;1.30;99.90
782;DHT22;374;52.568;13.402;2023-02-28T07:45:11;1.30;99.90
782;DHT22;374;52.568;13.402;2023-02-28T07:47:38;1.40;99.90
782;DHT22;374;52.568;13.402;2023-02-28T07:50:05;1.40;99.90
782;DHT22;374;52.568;13.402;2023-02-28T07:52:31;1.50;99.90
782;DHT22;374;52.568;13.402;2023-02-28T07:54:57;1.60;99.90
782;DHT22;374;52.568;13.402;2023-02-28T07:57:23;1.60;99.90
782;DHT22;374;52.568;13.402;2023-02-28T07:59:48;1.70;99.90
782;DHT22;374;52.568;13.402;2023-02-28T08:02:15;1.80;99.90
782;DHT22;374;52.568;13.402;2023-02-28T08:04:41;1.90;99.90
782;DHT22;374;52.568;13.402;2023-02-28T08:07:07;2.10;99.90
782;DHT22;374;52.568;13.402;2023-02-28T08:09:33;2.20;99.90
782;DHT22;374;52.568;13.402;2023-02-28T08:11:59;2.30;99.90
782;DHT22;374;52.568;13.402;2023-02-28T08:14:25;2.40;99.90
782;DHT22;374;52.568;13.402;2023-02-28T08:16:50;2.60;99.90
782;DHT22;374;52.568;13.402;2023-02-28T08:19:16;2.60;99.90
782;DHT22;374;52.568;13.402;2023-02-28T08:21:41;2.80;99.90
782;DHT22;374;52.568;13.402;2023-02-28T08:24:07;2.90;99.90
782;DHT22;374;52.568;13.402;2023-02-28T08:26:33;3.00;99.90
782;DHT22;374;52.568;13.402;2023-02-28T08:28:58;3.10;99.90
782;DHT22;374;52.568;13.402;2023-02-28T08:31:24;3.20;99.90
782;DHT22;374;52.568;13.402;2023-02-28T08:33:50;3.30;99.90
782;DHT22;374;52.568;13.402;2023-02-28T08:36:17;3.40;99.90
782;DHT22;374;52.568;13.402;2023-02-28T08:38:43;3.40;99.90
782;DHT22;374;52.568;13.402;2023-02-28T08:41:11;3.40;99.90
782;DHT22;374;52.568;13.402;2023-02-28T08:43:38;3.50;99.90
782;DHT22;374;52.568;13.402;2023-02-28T08:46:05;3.60;99.90
782;DHT22;374;52.568;13.402;2023-02-28T08:48:33;3.70;99.90
782;DHT22;374;52.568;13.402;2023-02-28T08:51:09;3.70;99.90
782;DHT22;374;52.568;13.402;2023-02-28T08:53:39;3.80;99.90
782;DHT22;374;52.568;13.402;2023-02-28T08:56:08;3.80;99.90
782;DHT22;374;52.568;13.402;2023-02-28T08:58:34;4.00;99.90
782;DHT22;374;52.568;13.402;2023-02-28T09:01:06;4.10;99.90
782;DHT22;374;52.568;13.402;2023-02-28T09:03:32;4.10;99.90
782;DHT22;374;52.568;13.402;2023-02-28T09:05:59;4.20;99.90
782;DHT22;374;52.568;13.402;2023-02-28T09:08:27;4.20;99.70
782;DHT22;374;52.568;13.402;2023-02-28T09:10:52;4.20;99.90
782;DHT22;374;52.568;13.402;2023-02-28T09:13:19;4.30;99.90
782;DHT22;374;52.568;13.402;2023-02-28T09:15:45;4.50;99.90
782;DHT22;374;52.568;13.402;2023-02-28T09:18:11;4.60;99.90
782;DHT22;374;52.568;13.402;2023-02-28T09:20:38;4.80;99.90
782;DHT22;374;52.568;13.402;2023-02-28T09:23:05;5.00;99.90
782;DHT22;374;52.568;13.402;2023-02-28T09:25:30;5.10;99.90
782;DHT22;374;52.568;13.402;2023-02-28T09:27:56;5.40;97.80
782;DHT22;374;52.568;13.402;2023-02-28T09:30:21;5.60;97.10
782;DHT22;374;52.568;13.402;2023-02-28T09:32:47;5.90;98.30
782;DHT22;374;52.568;13.402;2023-02-28T09:35:18;6.20;98.90
782;DHT22;374;52.568;13.402;2023-02-28T09:37:43;6.50;94.60
782;DHT22;374;52.568;13.402;2023-02-28T09:40:10;6.80;94.70
782;DHT22;374;52.568;13.402;2023-02-28T09:42:36;7.00;95.70
782;DHT22;374;52.568;13.402;2023-02-28T09:45:06;7.40;95.70
782;DHT22;374;52.568;13.402;2023-02-28T09:47:41;7.70;96.00
782;DHT22;374;52.568;13.402;2023-02-28T09:50:38;8.00;94.40
782;DHT22;374;52.568;13.402;2023-02-28T09:53:15;8.00;92.40
782;DHT22;374;52.568;13.402;2023-02-28T09:55:50;7.90;92.40
782;DHT22;374;52.568;13.402;2023-02-28T09:58:26;7.60;92.00
782;DHT22;374;52.568;13.402;2023-02-28T10:01:03;7.30;93.50
782;DHT22;374;52.568;13.402;2023-02-28T10:03:35;7.00;92.60
782;DHT22;374;52.568;13.402;2023-02-28T10:06:14;6.60;93.40
782;DHT22;374;52.568;13.402;2023-02-28T10:09:01;6.30;93.20
782;DHT22;374;52.568;13.402;2023-02-28T10:11:27;6.00;91.60
782;DHT22;374;52.568;13.402;2023-02-28T10:14:01;5.70;91.40
782;DHT22;374;52.568;13.402;2023-02-28T10:16:46;5.50;93.40
782;DHT22;374;52.568;13.402;2023-02-28T10:19:22;5.40;93.10
782;DHT22;374;52.568;13.402;2023-02-28T10:21:57;5.30;94.50
782;DHT22;374;52.568;13.402;2023-02-28T10:24:32;5.20;94.10
782;DHT22;374;52.568;13.402;2023-02-28T10:27:05;5.10;94.40
782;DHT22;374;52.568;13.402;2023-02-28T10:29:34;5.00;92.30
782;DHT22;374;52.568;13.402;2023-02-28T10:32:02;4.90;92.40
782;DHT22;374;52.568;13.402;2023-02-28T10:34:28;4.90;93.40
782;DHT22;374;52.568;13.402;2023-02-28T10:36:54;4.90;93.40
782;DHT22;374;52.568;13.402;2023-02-28T10:42:05;4.80;95.00
782;DHT22;374;52.568;13.402;2023-02-28T10:44:43;4.80;95.20
782;DHT22;374;52.568;13.402;2023-02-28T10:47:14;4.80;95.30
782;DHT22;374;52.568;13.402;2023-02-28T10:49:47;4.80;93.70
782;DHT22;374;52.568;13.402;2023-02-28T10:52:13;4.70;93.30
782;DHT22;374;52.568;13.402;2023-02-28T10:54:38;4.70;94.20
782;DHT22;374;52.568;13.402;2023-02-28T10:57:20;4.70;94.30
782;DHT22;374;52.568;13.402;2023-02-28T10:59:51;4.60;94.10
782;DHT22;374;52.568;13.402;2023-02-28T11:02:36;4.60;93.60
782;DHT22;374;52.568;13.402;2023-02-28T11:05:33;4.60;92.20
782;DHT22;374;52.568;13.402;2023-02-28T11:08:10;4.60;93.30
782;DHT22;374;52.568;13.402;2023-02-28T11:10:38;4.50;92.70
782;DHT22;374;52.568;13.402;2023-02-28T11:13:04;4.50;93.00
782;DHT22;374;52.568;13.402;2023-02-28T11:15:32;4.50;92.80
782;DHT22;374;52.568;13.402;2023-02-28T11:18:18;4.50;93.50
782;DHT22;374;52.568;13.402;2023-02-28T11:20:48;4.50;94.00
782;DHT22;374;52.568;13.402;2023-02-28T11:23:15;4.40;91.40
782;DHT22;374;52.568;13.402;2023-02-28T11:25:51;4.40;92.30
782;DHT22;374;52.568;13.402;2023-02-28T11:28:39;4.40;93.70
782;DHT22;374;52.568;13.402;2023-02-28T11:31:16;4.40;93.60
782;DHT22;374;52.568;13.402;2023-02-28T11:38:42;4.40;93.70
782;DHT22;374;52.568;13.402;2023-02-28T11:41:29;4.40;93.90
782;DHT22;374;52.568;13.402;2023-02-28T11:46:59;4.50;93.60
782;DHT22;374;52.568;13.402;2023-02-28T11:55:14;4.50;94.50
782;DHT22;374;52.568;13.402;2023-02-28T12:00:45;4.60;93.90
782;DHT22;374;52.568;13.402;2023-02-28T12:06:50;4.50;94.20
782;DHT22;374;52.568;13.402;2023-02-28T12:12:34;4.60;93.30
782;DHT22;374;52.568;13.402;2023-02-28T12:15:32;4.60;94.10
782;DHT22;374;52.568;13.402;2023-02-28T12:18:33;4.60;94.50
782;DHT22;374;52.568;13.402;2023-02-28T12:25:22;4.60;93.70
782;DHT22;374;52.568;13.402;2023-02-28T12:27:17;4.60;94.20
782;DHT22;374;52.568;13.402;2023-02-28T12:29:54;4.60;93.80
782;DHT22;374;52.568;13.402;2023-02-28T12:32:27;4.60;92.30
782;DHT22;374;52.568;13.402;2023-02-28T12:35:01;4.60;93.30
782;DHT22;374;52.568;13.402;2023-02-28T12:38:17;4.60;93.10
782;DHT22;374;52.568;13.402;2023-02-28T12:40:24;4.60;93.70
782;DHT22;374;52.568;13.402;2023-02-28T12:42:56;4.60;93.70
782;DHT22;374;52.568;13.402;2023-02-28T12:45:26;4.60;93.60
782;DHT22;374;52.568;13.402;2023-02-28T12:47:58;4.60;93.00
782;DHT22;374;52.568;13.402;2023-02-28T12:50:25;4.60;92.80
782;DHT22;374;52.568;13.402;2023-02-28T12:53:09;4.60;93.90
782;DHT22;374;52.568;13.402;2023-02-28T12:55:52;4.60;94.60
782;DHT22;374;52.568;13.402;2023-02-28T13:01:36;4.60;94.40
782;DHT22;374;52.568;13.402;2023-02-28T13:04:40;4.60;93.80
782;DHT22;374;52.568;13.402;2023-02-28T13:09:56;4.60;93.80
782;DHT22;374;52.568;13.402;2023-02-28T13:12:22;4.60;94.50
782;DHT22;374;52.568;13.402;2023-02-28T13:14:48;4.60;94.80
782;DHT22;374;52.568;13.402;2023-02-28T13:17:20;4.70;94.50
782;DHT22;374;52.568;13.402;2023-02-28T13:24:55;4.70;94.40
782;DHT22;374;52.568;13.402;2023-02-28T13:27:41;4.70;94.50
782;DHT22;374;52.568;13.402;2023-02-28T13:31:12;4.80;94.70
782;DHT22;374;52.568;13.402;2023-02-28T13:36:22;4.70;93.50
782;DHT22;374;52.568;13.402;2023-02-28T13:38:52;4.70;95.00
782;DHT22;374;52.568;13.402;2023-02-28T13:44:08;4.70;94.30
782;DHT22;374;52.568;13.402;2023-02-28T13:46:36;4.80;93.80
782;DHT22;374;52.568;13.402;2023-02-28T13:52:17;4.80;94.20
782;DHT22;374;52.568;13.402;2023-02-28T13:54:57;4.80;93.10
782;DHT22;374;52.568;13.402;2023-02-28T13:57:55;4.80;93.00
782;DHT22;374;52.568;13.402;2023-02-28T14:03:18;4.80;94.00
782;DHT22;374;52.568;13.402;2023-02-28T14:06:22;4.80;94.50
782;DHT22;374;52.568;13.402;2023-02-28T14:09:17;4.80;94.00
782;DHT22;374;52.568;13.402;2023-02-28T14:11:44;4.80;94.00
782;DHT22;374;52.568;13.402;2023-02-28T14:16:59;4.90;94.00
782;DHT22;374;52.568;13.402;2023-02-28T14:19:28;4.90;94.10
782;DHT22;374;52.568;13.402;2023-02-28T14:27:35;4.90;94.00
782;DHT22;374;52.568;13.402;2023-02-28T14:36:12;4.90;94.10
782;DHT22;374;52.568;13.402;2023-02-28T14:38:52;4.90;94.70
782;DHT22;374;52.568;13.402;2023-02-28T14:41:30;4.80;94.00
782;DHT22;374;52.568;13.402;2023-02-28T14:43:58;4.80;94.20
782;DHT22;374;52.568;13.402;2023-02-28T14:46:28;4.80;94.00
782;DHT22;374;52.568;13.402;2023-02-28T14:48:55;4.80;94.10
782;DHT22;374;52.568;13.402;2023-02-28T14:51:22;4.80;94.10
782;DHT22;374;52.568;13.402;2023-02-28T14:53:56;4.80;94.20
782;DHT22;374;52.568;13.402;2023-02-28T14:56:26;4.80;94.30
782;DHT22;374;52.568;13.402;2023-02-28T14:58:55;4.80;95.00
782;DHT22;374;52.568;13.402;2023-02-28T15:01:22;4.80;93.90
782;DHT22;374;52.568;13.402;2023-02-28T15:03:48;4.90;93.70
782;DHT22;374;52.568;13.402;2023-02-28T15:06:21;4.90;94.40
782;DHT22;374;52.568;13.402;2023-02-28T15:08:48;4.90;94.50
782;DHT22;374;52.568;13.402;2023-02-28T15:11:18;4.90;94.30
782;DHT22;374;52.568;13.402;2023-02-28T15:13:53;4.90;92.80
782;DHT22;374;52.568;13.402;2023-02-28T15:16:23;4.90;93.70
782;DHT22;374;52.568;13.402;2023-02-28T15:19:14;4.90;92.10
782;DHT22;374;52.568;13.402;2023-02-28T15:21:46;4.90;93.30
782;DHT22;374;52.568;13.402;2023-02-28T15:24:18;4.90;93.20
782;DHT22;374;52.568;13.402;2023-02-28T15:26:54;4.90;92.70
782;DHT22;374;52.568;13.402;2023-02-28T15:29:23;4.90;93.70
782;DHT22;374;52.568;13.402;2023-02-28T15:32:01;4.90;93.10
782;DHT22;374;52.568;13.402;2023-02-28T15:34:34;4.90;93.00
782;DHT22;374;52.568;13.402;2023-02-28T15:37:00;4.70;93.40
782;DHT22;374;52.568;13.402;2023-02-28T15:39:28;4.90;94.10
782;DHT22;374;52.568;13.402;2023-02-28T15:42:11;4.80;94.30
782;DHT22;374;52.568;13.402;2023-02-28T15:44:37;4.80;94.30
782;DHT22;374;52.568;13.402;2023-02-28T15:49:49;4.80;93.30
782;DHT22;374;52.568;13.402;2023-02-28T15:52:19;4.80;94.30
782;DHT22;374;52.568;13.402;2023-02-28T15:54:46;4.80;94.50
782;DHT22;374;52.568;13.402;2023-02-28T15:57:22;4.80;94.20
782;DHT22;374;52.568;13.402;2023-02-28T15:59:54;4.80;93.30
782;DHT22;374;52.568;13.402;2023-02-28T16:02:35;4.80;94.70
782;DHT22;374;52.568;13.402;2023-02-28T16:05:23;4.80;94.90
782;DHT22;374;52.568;13.402;2023-02-28T16:07:54;4.80;95.20
782;DHT22;374;52.568;13.402;2023-02-28T16:10:20;4.80;94.80
782;DHT22;374;52.568;13.402;2023-02-28T16:12:46;4.80;95.10
782;DHT22;374;52.568;13.402;2023-02-28T16:15:27;4.80;96.00
782;DHT22;374;52.568;13.402;2023-02-28T16:17:54;4.80;95.30
782;DHT22;374;52.568;13.402;2023-02-28T16:20:25;4.70;94.60
782;DHT22;374;52.568;13.402;2023-02-28T16:22:51;4.70;94.60
782;DHT22;374;52.568;13.402;2023-02-28T16:25:20;4.70;95.10
782;DHT22;374;52.568;13.402;2023-02-28T16:27:49;4.70;94.80
782;DHT22;374;52.568;13.402;2023-02-28T16:30:25;4.70;95.20
782;DHT22;374;52.568;13.402;2023-02-28T16:32:52;4.70;95.60
782;DHT22;374;52.568;13.402;2023-02-28T16:35:19;4.70;94.60
782;DHT22;374;52.568;13.402;2023-02-28T16:37:45;4.70;94.40
782;DHT22;374;52.568;13.402;2023-02-28T16:40:16;4.70;94.10
782;DHT22;374;52.568;13.402;2023-02-28T16:42:43;4.60;94.20
782;DHT22;374;52.568;13.402;2023-02-28T16:45:15;4.60;95.00
782;DHT22;374;52.568;13.402;2023-02-28T16:47:41;4.60;94.50
782;DHT22;374;52.568;13.402;2023-02-28T16:50:19;4.60;94.60
782;DHT22;374;52.568;13.402;2023-02-28T16:52:44;4.60;95.20
782;DHT22;374;52.568;13.402;2023-02-28T16:55:10;4.60;95.30
782;DHT22;374;52.568;13.402;2023-02-28T16:57:36;4.50;95.70
782;DHT22;374;52.568;13.402;2023-02-28T17:00:04;4.50;95.20
782;DHT22;374;52.568;13.402;2023-02-28T17:02:30;4.50;94.70
782;DHT22;374;52.568;13.402;2023-02-28T17:04:55;4.50;95.10
782;DHT22;374;52.568;13.402;2023-02-28T17:07:20;4.50;95.10
782;DHT22;374;52.568;13.402;2023-02-28T17:09:46;4.50;95.60
782;DHT22;374;52.568;13.402;2023-02-28T17:12:13;4.40;96.10
782;DHT22;374;52.568;13.402;2023-02-28T17:14:39;4.40;96.40
782;DHT22;374;52.568;13.402;2023-02-28T17:17:06;4.40;96.20
782;DHT22;374;52.568;13.402;2023-02-28T17:19:31;4.40;95.10
782;DHT22;374;52.568;13.402;2023-02-28T17:21:57;4.40;95.40
782;DHT22;374;52.568;13.402;2023-02-28T17:24:22;4.40;95.70
782;DHT22;374;52.568;13.402;2023-02-28T17:26:48;4.40;95.90
782;DHT22;374;52.568;13.402;2023-02-28T17:29:19;4.30;96.00
782;DHT22;374;52.568;13.402;2023-02-28T17:31:47;4.30;95.60
782;DHT22;374;52.568;13.402;2023-02-28T17:34:13;4.30;94.90
782;DHT22;374;52.568;13.402;2023-02-28T17:36:44;4.30;94.50
782;DHT22;374;52.568;13.402;2023-02-28T17:39:11;4.30;95.50
782;DHT22;374;52.568;13.402;2023-02-28T17:41:39;4.30;96.30
782;DHT22;374;52.568;13.402;2023-02-28T17:44:06;4.30;96.90
782;DHT22;374;52.568;13.402;2023-02-28T17:46:31;4.20;97.40
782;DHT22;374;52.568;13.402;2023-02-28T17:48:57;4.20;97.90
782;DHT22;374;52.568;13.402;2023-02-28T17:51:23;4.20;97.90
782;DHT22;374;52.568;13.402;2023-02-28T17:53:50;4.20;98.10
782;DHT22;374;52.568;13.402;2023-02-28T17:56:20;4.20;98.20
782;DHT22;374;52.568;13.402;2023-02-28T17:58:47;4.10;98.30
782;DHT22;374;52.568;13.402;2023-02-28T18:01:12;4.10;98.60
782;DHT22;374;52.568;13.402;2023-02-28T18:03:39;4.10;98.70
782;DHT22;374;52.568;13.402;2023-02-28T18:06:15;4.10;99.20
782;DHT22;374;52.568;13.402;2023-02-28T18:08:41;4.00;98.90
782;DHT22;374;52.568;13.402;2023-02-28T18:11:07;4.00;98.90
782;DHT22;374;52.568;13.402;2023-02-28T18:13:45;4.00;99.50
782;DHT22;374;52.568;13.402;2023-02-28T18:16:14;4.00;99.70
782;DHT22;374;52.568;13.402;2023-02-28T18:18:41;3.90;99.30
782;DHT22;374;52.568;13.402;2023-02-28T18:21:08;3.90;99.30
782;DHT22;374;52.568;13.402;2023-02-28T18:23:34;3.90;99.90
782;DHT22;374;52.568;13.402;2023-02-28T18:26:07;3.90;99.90
782;DHT22;374;52.568;13.402;2023-02-28T18:28:33;3.80;99.90